sensor_id;sensor_type;location;lat;lon;timestamp;pressure;altitude;pressure_sealevel;temperature;humidity
10978;BME280;5542;48.272;10.794;2023-05-29T00:00:50;95694.59;;;14.28;51.14
10978;BME280;5542;48.272;10.794;2023-05-29T00:03:18;95699.31;;;14.21;51.50
10978;BME280;5542;48.272;10.794;2023-05-29T00:05:44;95709.00;;;14.10;51.46
10978;BME280;5542;48.272;10.794;2023-05-29T00:08:11;95698.06;;;14.01;52.02
10978;BME280;5542;48.272;10.794;2023-05-29T00:10:37;95704.38;;;14.00;52.46
10978;BME280;5542;48.272;10.794;2023-05-29T00:13:05;95705.22;;;14.01;52.44
10978;BME280;5542;48.272;10.794;2023-05-29T00:15:32;95708.31;;;13.93;52.55
10978;BME280;5542;48.272;10.794;2023-05-29T00:17:59;95704.28;;;13.90;52.74
10978;BME280;5542;48.272;10.794;2023-05-29T00:20:26;95705.59;;;13.88;52.80
10978;BME280;5542;48.272;10.794;2023-05-29T00:22:53;95713.53;;;13.88;52.98
10978;BME280;5542;48.272;10.794;2023-05-29T00:25:20;95699.00;;;13.90;52.59
10978;BME280;5542;48.272;10.794;2023-05-29T00:27:47;95702.22;;;13.92;52.68
10978;BME280;5542;48.272;10.794;2023-05-29T00:30:15;95704.50;;;13.83;52.87
10978;BME280;5542;48.272;10.794;2023-05-29T00:32:42;95709.25;;;13.81;52.83
10978;BME280;5542;48.272;10.794;2023-05-29T00:35:09;95710.28;;;13.80;53.01
10978;BME280;5542;48.272;10.794;2023-05-29T00:37:36;95714.78;;;13.80;53.41
10978;BME280;5542;48.272;10.794;2023-05-29T00:40:03;95707.41;;;13.82;52.97
10978;BME280;5542;48.272;10.794;2023-05-29T00:42:30;95706.34;;;13.83;53.22
10978;BME280;5542;48.272;10.794;2023-05-29T00:44:56;95703.44;;;13.84;53.32
10978;BME280;5542;48.272;10.794;2023-05-29T00:47:25;95700.00;;;13.84;53.46
10978;BME280;5542;48.272;10.794;2023-05-29T00:49:53;95702.91;;;13.82;53.45
10978;BME280;5542;48.272;10.794;2023-05-29T00:52:20;95707.88;;;13.79;53.77
10978;BME280;5542;48.272;10.794;2023-05-29T00:54:46;95704.72;;;13.77;54.00
10978;BME280;5542;48.272;10.794;2023-05-29T00:57:16;95708.63;;;13.74;54.02
10978;BME280;5542;48.272;10.794;2023-05-29T00:59:44;95701.19;;;13.71;54.11
10978;BME280;5542;48.272;10.794;2023-05-29T01:02:12;95706.19;;;13.68;54.52
10978;BME280;5542;48.272;10.794;2023-05-29T01:04:44;95704.84;;;13.65;54.54
10978;BME280;5542;48.272;10.794;2023-05-29T01:07:10;95705.09;;;13.64;54.99
10978;BME280;5542;48.272;10.794;2023-05-29T01:09:38;95707.16;;;13.62;55.04
10978;BME280;5542;48.272;10.794;2023-05-29T01:12:16;95714.00;;;13.57;55.18
10978;BME280;5542;48.272;10.794;2023-05-29T01:14:59;95713.28;;;13.40;55.13
10978;BME280;5542;48.272;10.794;2023-05-29T01:17:38;95708.94;;;13.12;56.16
10978;BME280;5542;48.272;10.794;2023-05-29T01:20:23;95716.06;;;13.12;56.20
10978;BME280;5542;48.272;10.794;2023-05-29T01:23:07;95712.38;;;13.13;56.33
10978;BME280;5542;48.272;10.794;2023-05-29T01:25:46;95722.91;;;13.13;56.27
10978;BME280;5542;48.272;10.794;2023-05-29T01:28:20;95713.41;;;13.12;56.23
10978;BME280;5542;48.272;10.794;2023-05-29T01:30:49;95713.72;;;13.15;56.32
10978;BME280;5542;48.272;10.794;2023-05-29T01:33:17;95713.72;;;13.15;55.94
10978;BME280;5542;48.272;10.794;2023-05-29T01:35:43;95715.53;;;13.15;56.12
10978;BME280;5542;48.272;10.794;2023-05-29T01:38:10;95713.72;;;13.15;56.16
10978;BME280;5542;48.272;10.794;2023-05-29T01:40:37;95707.63;;;13.15;56.17
10978;BME280;5542;48.272;10.794;2023-05-29T01:43:04;95706.03;;;13.14;56.55
10978;BME280;5542;48.272;10.794;2023-05-29T01:45:33;95709.72;;;13.13;56.63
10978;BME280;5542;48.272;10.794;2023-05-29T01:48:00;95714.41;;;13.05;56.62
10978;BME280;5542;48.272;10.794;2023-05-29T01:50:27;95708.00;;;13.01;56.92
10978;BME280;5542;48.272;10.794;2023-05-29T01:52:55;95708.47;;;12.98;57.02
10978;BME280;5542;48.272;10.794;2023-05-29T01:55:21;95708.41;;;12.93;56.89
10978;BME280;5542;48.272;10.794;2023-05-29T01:57:48;95708.66;;;12.92;57.12
10978;BME280;5542;48.272;10.794;2023-05-29T02:00:16;95705.75;;;12.93;57.14
10978;BME280;5542;48.272;10.794;2023-05-29T02:02:45;95711.53;;;12.90;57.40
10978;BME280;5542;48.272;10.794;2023-05-29T02:05:12;95706.41;;;12.84;57.15
10978;BME280;5542;48.272;10.794;2023-05-29T02:07:38;95707.69;;;12.81;57.23
10978;BME280;5542;48.272;10.794;2023-05-29T02:10:06;95703.94;;;12.77;57.77
10978;BME280;5542;48.272;10.794;2023-05-29T02:12:32;95703.38;;;12.75;57.59
10978;BME280;5542;48.272;10.794;2023-05-29T02:14:59;95703.38;;;12.75;57.56
10978;BME280;5542;48.272;10.794;2023-05-29T02:17:26;95695.94;;;12.72;57.99
10978;BME280;5542;48.272;10.794;2023-05-29T02:19:54;95701.47;;;12.70;57.88
10978;BME280;5542;48.272;10.794;2023-05-29T02:22:20;95695.34;;;12.65;58.06
10978;BME280;5542;48.272;10.794;2023-05-29T02:24:47;95700.03;;;12.63;58.33
10978;BME280;5542;48.272;10.794;2023-05-29T02:27:13;95701.09;;;12.62;58.22
10978;BME280;5542;48.272;10.794;2023-05-29T02:29:40;95702.59;;;12.57;58.27
10978;BME280;5542;48.272;10.794;2023-05-29T02:32:07;95700.94;;;12.51;58.37
10978;BME280;5542;48.272;10.794;2023-05-29T02:34:33;95703.03;;;12.49;58.81
10978;BME280;5542;48.272;10.794;2023-05-29T02:37:01;95706.13;;;12.46;58.96
10978;BME280;5542;48.272;10.794;2023-05-29T02:39:28;95708.69;;;12.41;59.06
10978;BME280;5542;48.272;10.794;2023-05-29T02:41:55;95700.69;;;12.36;59.20
10978;BME280;5542;48.272;10.794;2023-05-29T02:44:21;95704.13;;;12.37;59.32
10978;BME280;5542;48.272;10.794;2023-05-29T02:46:48;95701.09;;;12.28;59.60
10978;BME280;5542;48.272;10.794;2023-05-29T02:49:15;95697.31;;;12.24;59.79
10978;BME280;5542;48.272;10.794;2023-05-29T02:51:41;95701.00;;;12.23;59.84
10978;BME280;5542;48.272;10.794;2023-05-29T02:54:09;95701.81;;;12.23;59.89
10978;BME280;5542;48.272;10.794;2023-05-29T02:56:37;95701.25;;;12.21;59.91
10978;BME280;5542;48.272;10.794;2023-05-29T02:59:04;95706.75;;;12.20;60.14
10978;BME280;5542;48.272;10.794;2023-05-29T03:01:30;95705.88;;;12.14;60.32
10978;BME280;5542;48.272;10.794;2023-05-29T03:03:58;95703.41;;;12.08;60.66
10978;BME280;5542;48.272;10.794;2023-05-29T03:06:24;95701.00;;;12.06;60.89
10978;BME280;5542;48.272;10.794;2023-05-29T03:08:51;95700.50;;;12.09;61.18
10978;BME280;5542;48.272;10.794;2023-05-29T03:11:19;95702.59;;;12.07;61.01
10978;BME280;5542;48.272;10.794;2023-05-29T03:13:48;95704.66;;;12.05;61.33
10978;BME280;5542;48.272;10.794;2023-05-29T03:16:15;95705.63;;;11.99;61.33
10978;BME280;5542;48.272;10.794;2023-05-29T03:18:42;95698.66;;;11.93;61.89
10978;BME280;5542;48.272;10.794;2023-05-29T03:21:09;95701.22;;;11.88;61.90
10978;BME280;5542;48.272;10.794;2023-05-29T03:23:35;95702.22;;;11.87;61.91
10978;BME280;5542;48.272;10.794;2023-05-29T03:26:02;95700.41;;;11.87;61.97
10978;BME280;5542;48.272;10.794;2023-05-29T03:28:30;95705.69;;;11.87;62.03
10978;BME280;5542;48.272;10.794;2023-05-29T03:30:57;95701.75;;;11.90;62.20
10978;BME280;5542;48.272;10.794;2023-05-29T03:33:23;95700.41;;;11.87;62.13
10978;BME280;5542;48.272;10.794;2023-05-29T03:35:50;95701.44;;;11.86;62.36
10978;BME280;5542;48.272;10.794;2023-05-29T03:38:17;95706.69;;;11.86;62.39
10978;BME280;5542;48.272;10.794;2023-05-29T03:40:43;95710.72;;;11.89;62.46
10978;BME280;5542;48.272;10.794;2023-05-29T03:43:10;95715.41;;;11.87;62.59
10978;BME280;5542;48.272;10.794;2023-05-29T03:45:38;95713.81;;;11.86;62.85
10978;BME280;5542;48.272;10.794;2023-05-29T03:48:04;95716.69;;;11.84;62.54
10978;BME280;5542;48.272;10.794;2023-05-29T03:50:31;95712.88;;;11.80;62.86
10978;BME280;5542;48.272;10.794;2023-05-29T03:52:58;95711.28;;;11.79;62.96
10978;BME280;5542;48.272;10.794;2023-05-29T03:55:26;95714.38;;;11.76;63.47
10978;BME280;5542;48.272;10.794;2023-05-29T03:57:53;95721.50;;;11.75;63.29
10978;BME280;5542;48.272;10.794;2023-05-29T04:00:20;95719.91;;;11.74;63.74
10978;BME280;5542;48.272;10.794;2023-05-29T04:02:49;95715.69;;;11.73;63.67
10978;BME280;5542;48.272;10.794;2023-05-29T04:05:15;95713.50;;;11.70;63.75
10978;BME280;5542;48.272;10.794;2023-05-29T04:07:42;95711.09;;;11.69;64.04
10978;BME280;5542;48.272;10.794;2023-05-29T04:10:09;95714.06;;;11.72;64.25
10978;BME280;5542;48.272;10.794;2023-05-29T04:12:35;95715.44;;;11.75;64.07
10978;BME280;5542;48.272;10.794;2023-05-29T04:15:02;95713.34;;;11.77;64.26
10978;BME280;5542;48.272;10.794;2023-05-29T04:17:29;95719.19;;;11.79;64.28
10978;BME280;5542;48.272;10.794;2023-05-29T04:19:57;95720.25;;;11.78;64.57
10978;BME280;5542;48.272;10.794;2023-05-29T04:22:24;95730.78;;;11.78;64.64
10978;BME280;5542;48.272;10.794;2023-05-29T04:24:51;95731.47;;;11.73;64.76
10978;BME280;5542;48.272;10.794;2023-05-29T04:27:18;95736.88;;;11.67;65.16
10978;BME280;5542;48.272;10.794;2023-05-29T04:29:44;95739.28;;;11.68;65.22
10978;BME280;5542;48.272;10.794;2023-05-29T04:32:11;95744.22;;;11.65;65.42
10978;BME280;5542;48.272;10.794;2023-05-29T04:34:38;95742.53;;;11.59;66.19
10978;BME280;5542;48.272;10.794;2023-05-29T04:37:06;95743.63;;;11.63;66.43
10978;BME280;5542;48.272;10.794;2023-05-29T04:39:33;95752.56;;;11.73;66.33
10978;BME280;5542;48.272;10.794;2023-05-29T04:41:59;95754.41;;;11.73;66.32
10978;BME280;5542;48.272;10.794;2023-05-29T04:44:26;95753.44;;;11.79;66.39
10978;BME280;5542;48.272;10.794;2023-05-29T04:46:54;95762.06;;;11.74;66.73
10978;BME280;5542;48.272;10.794;2023-05-29T04:49:22;95758.63;;;11.74;67.16
10978;BME280;5542;48.272;10.794;2023-05-29T04:51:48;95763.88;;;11.86;67.30
10978;BME280;5542;48.272;10.794;2023-05-29T04:54:19;95770.75;;;11.87;67.31
10978;BME280;5542;48.272;10.794;2023-05-29T04:56:46;95766.28;;;11.87;67.39
10978;BME280;5542;48.272;10.794;2023-05-29T04:59:12;95766.69;;;11.96;67.53
10978;BME280;5542;48.272;10.794;2023-05-29T05:01:39;95779.25;;;12.05;67.25
10978;BME280;5542;48.272;10.794;2023-05-29T05:04:08;95775.78;;;12.17;67.29
10978;BME280;5542;48.272;10.794;2023-05-29T05:06:35;95778.50;;;12.22;67.13
10978;BME280;5542;48.272;10.794;2023-05-29T05:09:02;95773.31;;;12.27;67.11
10978;BME280;5542;48.272;10.794;2023-05-29T05:11:31;95778.44;;;12.34;67.22
10978;BME280;5542;48.272;10.794;2023-05-29T05:13:57;95770.16;;;12.42;67.24
10978;BME280;5542;48.272;10.794;2023-05-29T05:16:24;95776.16;;;12.54;67.03
10978;BME280;5542;48.272;10.794;2023-05-29T05:18:51;95773.53;;;12.71;66.61
10978;BME280;5542;48.272;10.794;2023-05-29T05:21:17;95776.16;;;12.88;65.48
10978;BME280;5542;48.272;10.794;2023-05-29T05:23:45;95782.63;;;12.80;65.29
10978;BME280;5542;48.272;10.794;2023-05-29T05:26:12;95776.97;;;12.88;65.08
10978;BME280;5542;48.272;10.794;2023-05-29T05:28:39;95779.94;;;12.92;65.50
10978;BME280;5542;48.272;10.794;2023-05-29T05:31:06;95778.56;;;12.89;65.38
10978;BME280;5542;48.272;10.794;2023-05-29T05:33:33;95775.59;;;13.02;65.71
10978;BME280;5542;48.272;10.794;2023-05-29T05:35:59;95774.88;;;13.07;65.52
10978;BME280;5542;48.272;10.794;2023-05-29T05:38:26;95783.81;;;13.23;65.58
10978;BME280;5542;48.272;10.794;2023-05-29T05:40:53;95780.44;;;13.44;64.83
10978;BME280;5542;48.272;10.794;2023-05-29T05:43:21;95779.03;;;13.58;64.85
10978;BME280;5542;48.272;10.794;2023-05-29T05:45:49;95779.69;;;13.71;64.68
10978;BME280;5542;48.272;10.794;2023-05-29T05:48:15;95783.66;;;13.95;62.69
10978;BME280;5542;48.272;10.794;2023-05-29T05:50:42;95782.44;;;14.03;62.79
10978;BME280;5542;48.272;10.794;2023-05-29T05:53:08;95785.38;;;14.06;62.25
10978;BME280;5542;48.272;10.794;2023-05-29T05:55:35;95786.66;;;14.26;63.59
10978;BME280;5542;48.272;10.794;2023-05-29T05:58:01;95789.09;;;14.32;62.73
10978;BME280;5542;48.272;10.794;2023-05-29T06:00:28;95786.47;;;14.38;62.43
10978;BME280;5542;48.272;10.794;2023-05-29T06:02:56;95783.59;;;14.39;63.26
10978;BME280;5542;48.272;10.794;2023-05-29T06:05:22;95785.31;;;14.50;63.59
10978;BME280;5542;48.272;10.794;2023-05-29T06:07:49;95785.81;;;14.79;61.41
10978;BME280;5542;48.272;10.794;2023-05-29T06:10:16;95796.09;;;14.76;62.13
10978;BME280;5542;48.272;10.794;2023-05-29T06:12:42;95792.59;;;14.97;61.13
10978;BME280;5542;48.272;10.794;2023-05-29T06:15:09;95791.34;;;15.10;61.33
10978;BME280;5542;48.272;10.794;2023-05-29T06:17:36;95784.03;;;15.27;60.43
10978;BME280;5542;48.272;10.794;2023-05-29T06:20:05;95790.75;;;15.40;61.35
10978;BME280;5542;48.272;10.794;2023-05-29T06:22:35;95788.66;;;15.52;60.46
10978;BME280;5542;48.272;10.794;2023-05-29T06:25:01;95795.06;;;15.56;59.45
10978;BME280;5542;48.272;10.794;2023-05-29T06:27:28;95800.13;;;15.63;59.14
10978;BME280;5542;48.272;10.794;2023-05-29T06:29:55;95797.66;;;15.99;60.85
10978;BME280;5542;48.272;10.794;2023-05-29T06:32:21;95795.28;;;16.07;57.20
10978;BME280;5542;48.272;10.794;2023-05-29T06:34:48;95802.78;;;16.26;57.80
10978;BME280;5542;48.272;10.794;2023-05-29T06:37:16;95800.16;;;16.51;57.28
10978;BME280;5542;48.272;10.794;2023-05-29T06:39:44;95804.19;;;16.74;55.15
10978;BME280;5542;48.272;10.794;2023-05-29T06:42:11;95801.31;;;16.81;55.42
10978;BME280;5542;48.272;10.794;2023-05-29T06:44:37;95809.78;;;16.98;55.83
10978;BME280;5542;48.272;10.794;2023-05-29T06:47:05;95795.94;;;17.27;54.88
10978;BME280;5542;48.272;10.794;2023-05-29T06:49:32;95808.41;;;17.31;55.96
10978;BME280;5542;48.272;10.794;2023-05-29T06:51:58;95805.72;;;17.47;55.72
10978;BME280;5542;48.272;10.794;2023-05-29T06:54:26;95808.38;;;17.62;54.68
10978;BME280;5542;48.272;10.794;2023-05-29T06:56:53;95803.94;;;18.12;54.99
10978;BME280;5542;48.272;10.794;2023-05-29T06:59:20;95807.97;;;18.54;51.99
10978;BME280;5542;48.272;10.794;2023-05-29T07:01:46;95810.09;;;18.96;50.13
10978;BME280;5542;48.272;10.794;2023-05-29T07:04:13;95810.25;;;19.10;50.07
10978;BME280;5542;48.272;10.794;2023-05-29T07:06:40;95799.38;;;19.59;49.39
10978;BME280;5542;48.272;10.794;2023-05-29T07:09:07;95799.13;;;19.56;47.92
10978;BME280;5542;48.272;10.794;2023-05-29T07:11:35;95797.75;;;19.63;46.77
10978;BME280;5542;48.272;10.794;2023-05-29T07:14:01;95797.50;;;19.60;46.52
10978;BME280;5542;48.272;10.794;2023-05-29T07:16:28;95806.50;;;19.69;46.04
10978;BME280;5542;48.272;10.794;2023-05-29T07:18:55;95804.00;;;19.78;47.90
10978;BME280;5542;48.272;10.794;2023-05-29T07:21:21;95802.75;;;19.70;45.76
10978;BME280;5542;48.272;10.794;2023-05-29T07:23:48;95808.09;;;19.94;45.48
10978;BME280;5542;48.272;10.794;2023-05-29T07:26:15;95809.72;;;20.33;47.78
10978;BME280;5542;48.272;10.794;2023-05-29T07:28:43;95808.19;;;20.45;44.49
10978;BME280;5542;48.272;10.794;2023-05-29T07:31:10;95805.63;;;20.59;43.67
10978;BME280;5542;48.272;10.794;2023-05-29T07:33:36;95809.53;;;20.67;43.81
10978;BME280;5542;48.272;10.794;2023-05-29T07:36:06;95803.41;;;20.48;42.64
10978;BME280;5542;48.272;10.794;2023-05-29T07:38:32;95816.28;;;20.40;44.95
10978;BME280;5542;48.272;10.794;2023-05-29T07:40:59;95817.41;;;20.58;46.87
10978;BME280;5542;48.272;10.794;2023-05-29T07:43:26;95815.56;;;21.10;42.90
10978;BME280;5542;48.272;10.794;2023-05-29T07:45:54;95811.03;;;20.92;41.77
10978;BME280;5542;48.272;10.794;2023-05-29T07:48:20;95811.66;;;21.03;43.22
10978;BME280;5542;48.272;10.794;2023-05-29T07:50:47;95805.66;;;21.11;41.71
10978;BME280;5542;48.272;10.794;2023-05-29T07:53:14;95815.97;;;21.17;41.87
10978;BME280;5542;48.272;10.794;2023-05-29T07:55:40;95815.47;;;21.15;41.78
10978;BME280;5542;48.272;10.794;2023-05-29T07:58:07;95813.63;;;20.97;42.01
10978;BME280;5542;48.272;10.794;2023-05-29T08:00:34;95819.34;;;21.42;43.71
10978;BME280;5542;48.272;10.794;2023-05-29T08:03:03;95817.75;;;21.55;41.78
10978;BME280;5542;48.272;10.794;2023-05-29T08:05:30;95809.84;;;21.77;41.03
10978;BME280;5542;48.272;10.794;2023-05-29T08:08:05;95808.16;;;21.67;41.31
10978;BME280;5542;48.272;10.794;2023-05-29T08:10:33;95813.72;;;21.98;42.34
10978;BME280;5542;48.272;10.794;2023-05-29T08:13:00;95816.56;;;21.88;40.42
10978;BME280;5542;48.272;10.794;2023-05-29T08:15:27;95812.84;;;22.03;40.54
10978;BME280;5542;48.272;10.794;2023-05-29T08:17:53;95804.78;;;22.03;39.46
10978;BME280;5542;48.272;10.794;2023-05-29T08:20:21;95809.63;;;21.60;40.86
10978;BME280;5542;48.272;10.794;2023-05-29T08:22:48;95816.28;;;21.30;41.91
10978;BME280;5542;48.272;10.794;2023-05-29T08:25:15;95812.38;;;21.41;41.01
10978;BME280;5542;48.272;10.794;2023-05-29T08:27:42;95812.28;;;21.32;41.12
10978;BME280;5542;48.272;10.794;2023-05-29T08:30:09;95810.34;;;21.19;41.65
10978;BME280;5542;48.272;10.794;2023-05-29T08:32:37;95816.88;;;21.73;43.41
10978;BME280;5542;48.272;10.794;2023-05-29T08:35:04;95813.19;;;21.55;40.77
10978;BME280;5542;48.272;10.794;2023-05-29T08:37:32;95813.63;;;22.17;41.84
10978;BME280;5542;48.272;10.794;2023-05-29T08:39:58;95817.38;;;22.16;39.95
10978;BME280;5542;48.272;10.794;2023-05-29T08:42:29;95818.81;;;22.50;42.57
10978;BME280;5542;48.272;10.794;2023-05-29T08:45:01;95813.19;;;23.10;40.63
10978;BME280;5542;48.272;10.794;2023-05-29T08:47:32;95815.56;;;23.65;39.10
10978;BME280;5542;48.272;10.794;2023-05-29T08:50:00;95805.16;;;24.30;37.63
10978;BME280;5542;48.272;10.794;2023-05-29T08:52:34;95807.25;;;23.75;35.83
10978;BME280;5542;48.272;10.794;2023-05-29T08:55:05;95818.53;;;23.10;37.52
10978;BME280;5542;48.272;10.794;2023-05-29T08:57:32;95811.41;;;22.47;38.38
10978;BME280;5542;48.272;10.794;2023-05-29T09:00:00;95824.75;;;22.97;38.33
10978;BME280;5542;48.272;10.794;2023-05-29T09:02:27;95817.34;;;23.47;37.34
10978;BME280;5542;48.272;10.794;2023-05-29T09:04:54;95808.91;;;23.32;35.39
10978;BME280;5542;48.272;10.794;2023-05-29T09:07:22;95815.78;;;23.24;37.05
10978;BME280;5542;48.272;10.794;2023-05-29T09:09:52;95819.63;;;23.32;37.87
10978;BME280;5542;48.272;10.794;2023-05-29T09:12:19;95810.81;;;23.09;36.87
10978;BME280;5542;48.272;10.794;2023-05-29T09:14:47;95811.59;;;23.09;35.71
10978;BME280;5542;48.272;10.794;2023-05-29T09:17:17;95809.31;;;23.25;37.72
10978;BME280;5542;48.272;10.794;2023-05-29T09:19:44;95812.63;;;23.53;35.87
10978;BME280;5542;48.272;10.794;2023-05-29T09:22:12;95805.72;;;23.30;35.85
10978;BME280;5542;48.272;10.794;2023-05-29T09:24:45;95817.41;;;23.34;36.36
10978;BME280;5542;48.272;10.794;2023-05-29T09:27:14;95821.22;;;23.33;36.57
10978;BME280;5542;48.272;10.794;2023-05-29T09:29:42;95815.66;;;23.07;36.92
10978;BME280;5542;48.272;10.794;2023-05-29T09:32:13;95815.59;;;23.20;37.38
10978;BME280;5542;48.272;10.794;2023-05-29T09:34:41;95809.25;;;23.39;36.17
10978;BME280;5542;48.272;10.794;2023-05-29T09:37:08;95807.41;;;23.48;35.73
10978;BME280;5542;48.272;10.794;2023-05-29T09:39:45;95812.44;;;23.72;35.33
10978;BME280;5542;48.272;10.794;2023-05-29T09:42:14;95802.72;;;23.93;35.12
10978;BME280;5542;48.272;10.794;2023-05-29T09:44:42;95803.47;;;23.85;34.85
10978;BME280;5542;48.272;10.794;2023-05-29T09:47:09;95806.91;;;24.17;34.65
10978;BME280;5542;48.272;10.794;2023-05-29T09:49:40;95807.41;;;24.27;34.03
10978;BME280;5542;48.272;10.794;2023-05-29T09:52:09;95809.88;;;24.15;34.47
10978;BME280;5542;48.272;10.794;2023-05-29T09:54:41;95807.13;;;24.38;34.24
10978;BME280;5542;48.272;10.794;2023-05-29T09:57:10;95810.66;;;23.98;33.43
10978;BME280;5542;48.272;10.794;2023-05-29T09:59:39;95815.56;;;23.65;34.51
10978;BME280;5542;48.272;10.794;2023-05-29T10:02:06;95812.56;;;23.67;34.97
10978;BME280;5542;48.272;10.794;2023-05-29T10:04:36;95808.03;;;23.76;33.26
10978;BME280;5542;48.272;10.794;2023-05-29T10:07:08;95812.00;;;23.25;33.72
10978;BME280;5542;48.272;10.794;2023-05-29T10:09:38;95808.09;;;23.62;36.22
10978;BME280;5542;48.272;10.794;2023-05-29T10:12:11;95800.09;;;24.19;33.04
10978;BME280;5542;48.272;10.794;2023-05-29T10:14:40;95794.47;;;24.82;33.76
10978;BME280;5542;48.272;10.794;2023-05-29T10:17:08;95788.78;;;25.09;32.89
10978;BME280;5542;48.272;10.794;2023-05-29T10:19:37;95797.97;;;25.17;31.30
10978;BME280;5542;48.272;10.794;2023-05-29T10:22:05;95793.84;;;25.02;31.81
10978;BME280;5542;48.272;10.794;2023-05-29T10:24:32;95790.84;;;24.86;30.88
10978;BME280;5542;48.272;10.794;2023-05-29T10:27:00;95800.66;;;24.56;32.72
10978;BME280;5542;48.272;10.794;2023-05-29T10:29:29;95793.25;;;24.79;31.90
10978;BME280;5542;48.272;10.794;2023-05-29T10:32:06;95789.13;;;24.64;30.45
10978;BME280;5542;48.272;10.794;2023-05-29T10:34:41;95788.16;;;24.51;31.56
10978;BME280;5542;48.272;10.794;2023-05-29T10:37:20;95801.25;;;24.36;33.71
10978;BME280;5542;48.272;10.794;2023-05-29T10:39:48;95799.16;;;24.24;31.53
10978;BME280;5542;48.272;10.794;2023-05-29T10:42:40;95788.94;;;24.52;31.60
10978;BME280;5542;48.272;10.794;2023-05-29T10:45:08;95784.63;;;24.34;30.87
10978;BME280;5542;48.272;10.794;2023-05-29T10:47:36;95781.63;;;24.35;30.41
10978;BME280;5542;48.272;10.794;2023-05-29T10:50:04;95785.81;;;24.01;31.09
10978;BME280;5542;48.272;10.794;2023-05-29T10:52:31;95789.44;;;24.45;31.96
10978;BME280;5542;48.272;10.794;2023-05-29T10:54:58;95784.84;;;24.55;31.08
10978;BME280;5542;48.272;10.794;2023-05-29T10:57:25;95782.78;;;24.60;31.24
10978;BME280;5542;48.272;10.794;2023-05-29T10:59:59;95785.16;;;24.62;30.96
10978;BME280;5542;48.272;10.794;2023-05-29T11:02:26;95790.66;;;24.39;33.44
10978;BME280;5542;48.272;10.794;2023-05-29T11:05:18;95788.94;;;24.52;32.66
10978;BME280;5542;48.272;10.794;2023-05-29T11:07:52;95788.31;;;24.46;30.13
10978;BME280;5542;48.272;10.794;2023-05-29T11:10:44;95775.16;;;24.27;29.59
10978;BME280;5542;48.272;10.794;2023-05-29T11:13:23;95776.72;;;24.28;31.79
10978;BME280;5542;48.272;10.794;2023-05-29T11:16:04;95788.63;;;24.53;33.82
10978;BME280;5542;48.272;10.794;2023-05-29T11:18:31;95773.94;;;24.60;33.11
10978;BME280;5542;48.272;10.794;2023-05-29T11:21:04;95780.09;;;24.77;29.97
10978;BME280;5542;48.272;10.794;2023-05-29T11:23:36;95791.31;;;24.36;29.44
10978;BME280;5542;48.272;10.794;2023-05-29T11:26:07;95784.78;;;24.28;31.82
10978;BME280;5542;48.272;10.794;2023-05-29T11:28:35;95791.63;;;24.52;30.78
10978;BME280;5542;48.272;10.794;2023-05-29T11:31:08;95781.97;;;24.68;32.71
10978;BME280;5542;48.272;10.794;2023-05-29T11:33:39;95787.38;;;24.86;29.93
10978;BME280;5542;48.272;10.794;2023-05-29T11:36:09;95775.50;;;24.87;30.79
10978;BME280;5542;48.272;10.794;2023-05-29T11:38:36;95771.72;;;24.88;30.60
10978;BME280;5542;48.272;10.794;2023-05-29T11:41:03;95773.28;;;24.89;30.69
10978;BME280;5542;48.272;10.794;2023-05-29T11:43:30;95778.19;;;25.13;31.44
10978;BME280;5542;48.272;10.794;2023-05-29T11:45:57;95777.53;;;25.24;30.04
10978;BME280;5542;48.272;10.794;2023-05-29T11:48:24;95788.47;;;24.85;30.46
10978;BME280;5542;48.272;10.794;2023-05-29T11:50:50;95769.50;;;24.72;31.39
10978;BME280;5542;48.272;10.794;2023-05-29T11:53:18;95765.22;;;24.71;30.91
10978;BME280;5542;48.272;10.794;2023-05-29T11:55:46;95772.47;;;24.97;30.74
10978;BME280;5542;48.272;10.794;2023-05-29T11:58:14;95768.53;;;24.77;29.95
10978;BME280;5542;48.272;10.794;2023-05-29T12:00:42;95769.34;;;24.60;31.88
10978;BME280;5542;48.272;10.794;2023-05-29T12:03:11;95771.72;;;24.53;31.26
10978;BME280;5542;48.272;10.794;2023-05-29T12:05:45;95771.25;;;24.51;31.18
10978;BME280;5542;48.272;10.794;2023-05-29T12:08:11;95770.44;;;24.68;33.96
10978;BME280;5542;48.272;10.794;2023-05-29T12:10:46;95766.47;;;24.91;30.36
10978;BME280;5542;48.272;10.794;2023-05-29T12:13:13;95767.88;;;25.06;30.66
10978;BME280;5542;48.272;10.794;2023-05-29T12:15:42;95772.13;;;25.33;31.84
10978;BME280;5542;48.272;10.794;2023-05-29T12:18:09;95765.94;;;25.33;30.37
10978;BME280;5542;48.272;10.794;2023-05-29T12:20:36;95767.53;;;25.25;30.04
10978;BME280;5542;48.272;10.794;2023-05-29T12:23:03;95771.31;;;25.33;31.46
10978;BME280;5542;48.272;10.794;2023-05-29T12:25:30;95768.69;;;25.62;31.04
10978;BME280;5542;48.272;10.794;2023-05-29T12:27:58;95768.91;;;25.48;30.53
10978;BME280;5542;48.272;10.794;2023-05-29T12:30:25;95759.78;;;25.32;28.91
10978;BME280;5542;48.272;10.794;2023-05-29T12:32:52;95768.03;;;25.01;28.65
10978;BME280;5542;48.272;10.794;2023-05-29T12:35:22;95771.38;;;24.98;29.97
10978;BME280;5542;48.272;10.794;2023-05-29T12:37:53;95763.16;;;25.12;29.54
10978;BME280;5542;48.272;10.794;2023-05-29T12:40:22;95765.34;;;25.01;29.37
10978;BME280;5542;48.272;10.794;2023-05-29T12:42:53;95762.03;;;24.87;29.92
10978;BME280;5542;48.272;10.794;2023-05-29T12:45:25;95770.59;;;24.63;32.55
10978;BME280;5542;48.272;10.794;2023-05-29T12:47:53;95773.47;;;24.66;32.23
10978;BME280;5542;48.272;10.794;2023-05-29T12:50:24;95775.19;;;24.80;32.24
10978;BME280;5542;48.272;10.794;2023-05-29T12:52:56;95773.25;;;25.06;31.91
10978;BME280;5542;48.272;10.794;2023-05-29T12:55:23;95779.38;;;25.50;31.35
10978;BME280;5542;48.272;10.794;2023-05-29T12:57:49;95771.63;;;25.40;30.45
10978;BME280;5542;48.272;10.794;2023-05-29T13:00:17;95773.59;;;24.96;31.28
10978;BME280;5542;48.272;10.794;2023-05-29T13:02:49;95773.28;;;24.89;31.66
10978;BME280;5542;48.272;10.794;2023-05-29T13:05:16;95771.06;;;24.82;30.72